Time;durP1;ratioP1;P1;durP2;ratioP2;P2;SDS_P1;SDS_P2;PMS_P1;PMS_P2;Temp;Humidity;BMP_temperature;BMP_pressure;BME280_temperature;BME280_humidity;BME280_pressure;Samples;Min_cycle;Max_cycle;Signal;HPM_P1;HPM_P2
2022/03/13 00:00:04;;;;;;;5.20;3.60;;;12.30;99.90;;;;;;5033476;28;19916;-33
2022/03/13 00:02:29;;;;;;;4.32;3.40;;;12.30;99.90;;;;;;5024359;28;20474;-35
2022/03/13 00:04:56;;;;;;;6.88;3.55;;;12.30;99.90;;;;;;5032735;28;20044;-36
2022/03/13 00:07:25;;;;;;;6.00;4.35;;;12.30;99.90;;;;;;5034317;28;20471;-33
2022/03/13 00:09:51;;;;;;;6.40;3.97;;;12.30;99.90;;;;;;5034803;28;20029;-35
2022/03/13 00:12:24;;;;;;;5.88;3.78;;;12.40;99.90;;;;;;5031037;28;20037;-32
2022/03/13 00:14:51;;;;;;;5.45;3.95;;;12.40;99.90;;;;;;5029584;28;20515;-33
2022/03/13 00:17:17;;;;;;;6.30;4.00;;;12.40;99.90;;;;;;5033813;28;20509;-32
2022/03/13 00:19:44;;;;;;;8.23;3.70;;;12.40;99.90;;;;;;5020205;28;20095;-48
2022/03/13 00:22:10;;;;;;;7.32;4.20;;;12.40;99.90;;;;;;5014819;28;20026;-38
2022/03/13 00:24:36;;;;;;;5.75;4.20;;;12.40;99.90;;;;;;5028321;28;20029;-35
2022/03/13 00:27:02;;;;;;;4.97;3.70;;;12.40;99.90;;;;;;5026460;28;20022;-34
2022/03/13 00:29:28;;;;;;;6.25;4.35;;;12.30;99.90;;;;;;5021357;28;20120;-39
2022/03/13 00:31:54;;;;;;;8.18;4.57;;;12.30;99.90;;;;;;5033554;28;20120;-31
2022/03/13 00:34:19;;;;;;;9.65;4.60;;;12.30;99.90;;;;;;5033840;28;20120;-32
2022/03/13 00:36:45;;;;;;;7.78;4.72;;;12.40;99.90;;;;;;5028907;28;20105;-35
2022/03/13 00:39:11;;;;;;;8.52;5.20;;;12.40;99.90;;;;;;5023527;28;20030;-36
2022/03/13 00:41:38;;;;;;;8.13;4.38;;;12.40;99.90;;;;;;5020636;28;20095;-37
2022/03/13 00:44:05;;;;;;;11.25;5.03;;;12.30;99.90;;;;;;5032568;28;20033;-36
2022/03/13 00:46:31;;;;;;;8.10;3.87;;;12.30;99.90;;;;;;5010344;28;20112;-38
2022/03/13 00:48:58;;;;;;;7.22;4.75;;;12.30;99.90;;;;;;5022851;28;20025;-36
2022/03/13 00:51:24;;;;;;;9.18;5.25;;;12.30;99.90;;;;;;5015080;28;20041;-32
2022/03/13 00:53:50;;;;;;;11.63;5.57;;;12.30;99.90;;;;;;5022153;28;20484;-34
2022/03/13 00:56:16;;;;;;;12.00;5.60;;;12.20;99.90;;;;;;5026788;28;20037;-36
2022/03/13 00:58:42;;;;;;;10.20;5.25;;;12.30;99.90;;;;;;5030416;28;20367;-36
2022/03/13 01:01:10;;;;;;;9.90;5.45;;;12.20;99.90;;;;;;5020447;28;20030;-36
2022/03/13 01:03:36;;;;;;;11.07;4.97;;;12.30;99.90;;;;;;5019782;28;20026;-43
2022/03/13 01:06:03;;;;;;;8.30;5.20;;;12.20;99.90;;;;;;5022172;28;20030;-36
2022/03/13 01:08:29;;;;;;;8.13;4.63;;;12.20;99.90;;;;;;5018579;28;20466;-38
2022/03/13 01:10:55;;;;;;;9.10;5.00;;;12.20;99.90;;;;;;5022838;28;20032;-35
2022/03/13 01:13:21;;;;;;;11.13;5.35;;;12.10;99.90;;;;;;5031144;28;20033;-40
2022/03/13 01:15:54;;;;;;;9.70;5.07;;;12.10;99.90;;;;;;5021988;28;20038;-35
2022/03/13 01:18:20;;;;;;;8.13;4.60;;;12.10;99.90;;;;;;5033303;28;20138;-40
2022/03/13 01:20:47;;;;;;;7.20;4.40;;;12.10;99.90;;;;;;5028628;28;20053;-34
2022/03/13 01:23:14;;;;;;;8.85;4.75;;;12.10;99.90;;;;;;5024024;28;20397;-33
2022/03/13 01:25:40;;;;;;;8.00;4.88;;;12.10;99.90;;;;;;5033185;28;20486;-35
2022/03/13 01:28:06;;;;;;;7.93;4.80;;;12.10;99.90;;;;;;5021790;28;20022;-35
2022/03/13 01:30:31;;;;;;;10.05;5.00;;;12.10;99.90;;;;;;5018427;28;20037;-33
2022/03/13 01:32:57;;;;;;;7.50;4.47;;;12.10;99.90;;;;;;5030800;28;20037;-33
2022/03/13 01:35:24;;;;;;;5.97;3.88;;;12.10;99.90;;;;;;5023175;28;20025;-34
2022/03/13 01:37:51;;;;;;;8.18;4.60;;;12.00;99.90;;;;;;5025956;28;20029;-44
2022/03/13 01:40:23;;;;;;;6.70;4.57;;;12.10;99.90;;;;;;5017158;28;20021;-43
2022/03/13 01:42:50;;;;;;;7.82;4.38;;;12.00;99.90;;;;;;5026857;28;20453;-37
2022/03/13 01:45:18;;;;;;;6.53;4.05;;;12.00;99.90;;;;;;5017797;28;20054;-36
2022/03/13 01:47:45;;;;;;;11.00;4.50;;;12.00;99.90;;;;;;5027219;28;20022;-41
2022/03/13 01:50:12;;;;;;;5.85;3.55;;;12.00;99.90;;;;;;5028611;28;20539;-42
2022/03/13 01:52:39;;;;;;;5.90;3.50;;;12.00;99.90;;;;;;5019330;28;20053;-39
2022/03/13 01:55:06;;;;;;;4.95;3.65;;;12.00;99.90;;;;;;5029922;28;20029;-40
2022/03/13 01:57:32;;;;;;;5.60;3.72;;;12.00;99.90;;;;;;5013066;28;20029;-40
2022/03/13 01:59:59;;;;;;;8.60;3.22;;;11.90;99.90;;;;;;5013286;28;20437;-39
2022/03/13 02:02:29;;;;;;;4.40;3.17;;;12.00;99.90;;;;;;5020344;28;20064;-42
2022/03/13 02:04:56;;;;;;;5.78;3.50;;;11.90;99.90;;;;;;5013507;28;20049;-39
2022/03/13 02:07:23;;;;;;;5.05;2.90;;;11.80;99.90;;;;;;5012998;28;20037;-39
2022/03/13 02:09:50;;;;;;;6.05;2.85;;;11.80;99.90;;;;;;5022564;28;20045;-41
2022/03/13 02:12:18;;;;;;;10.05;3.50;;;11.80;99.90;;;;;;5026668;28;20169;-40
2022/03/13 02:14:44;;;;;;;5.03;2.88;;;11.70;99.90;;;;;;5020446;28;20450;-39
2022/03/13 02:17:10;;;;;;;4.30;2.50;;;11.70;99.90;;;;;;5030111;28;20412;-41
2022/03/13 02:19:36;;;;;;;4.85;2.90;;;11.60;99.90;;;;;;5024561;28;20029;-43
2022/03/13 02:22:01;;;;;;;4.63;2.90;;;11.70;99.90;;;;;;5016558;28;20021;-41
2022/03/13 02:24:28;;;;;;;4.10;2.95;;;11.70;99.90;;;;;;5027769;28;20091;-40
2022/03/13 02:26:59;;;;;;;4.78;2.92;;;11.70;99.90;;;;;;5027285;28;20038;-38
2022/03/13 02:29:25;;;;;;;3.97;2.95;;;11.60;99.90;;;;;;5019786;28;20120;-39
2022/03/13 02:31:50;;;;;;;3.63;2.67;;;11.60;99.90;;;;;;5023637;28;20061;-40
2022/03/13 02:34:16;;;;;;;3.55;2.67;;;11.50;99.90;;;;;;5021826;28;20052;-39
2022/03/13 02:36:42;;;;;;;10.80;3.55;;;11.50;99.90;;;;;;5013813;28;20026;-41
2022/03/13 02:39:09;;;;;;;4.72;3.00;;;11.60;99.90;;;;;;5031396;28;20160;-44
2022/03/13 02:41:35;;;;;;;6.68;3.72;;;11.70;99.90;;;;;;5023967;28;20038;-41
2022/03/13 02:44:01;;;;;;;6.75;3.50;;;11.80;99.90;;;;;;5030204;28;20037;-36
2022/03/13 02:46:48;;;;;;;5.93;4.05;;;11.80;99.90;;;;;;5027755;28;20025;-30
2022/03/13 02:49:18;;;;;;;7.13;4.00;;;11.80;99.90;;;;;;5030724;28;20548;-30
2022/03/13 02:51:46;;;;;;;6.05;2.95;;;11.70;99.90;;;;;;5029469;28;20033;-31
2022/03/13 02:54:13;;;;;;;;;;;11.70;99.90;;;;;;5023428;28;20034;-32
2022/03/13 02:56:39;;;;;;;5.70;3.40;;;11.80;99.90;;;;;;5032076;28;19960;-35
2022/03/13 02:59:04;;;;;;;6.63;3.72;;;11.80;99.90;;;;;;5029981;28;20471;-33
2022/03/13 03:01:31;;;;;;;5.55;4.03;;;11.80;99.90;;;;;;5027297;28;20056;-35
2022/03/13 03:03:58;;;;;;;6.57;4.03;;;11.70;99.90;;;;;;5019827;28;20032;-31
2022/03/13 03:06:27;;;;;;;8.32;4.65;;;11.70;99.90;;;;;;5019513;28;20030;-33
2022/03/13 03:08:53;;;;;;;7.97;4.15;;;11.60;99.90;;;;;;5026749;28;20033;-36
2022/03/13 03:11:19;;;;;;;11.10;3.58;;;11.60;99.90;;;;;;5029738;28;20033;-35
2022/03/13 03:13:44;;;;;;;6.13;3.83;;;11.60;99.90;;;;;;5025611;28;20033;-36
2022/03/13 03:16:10;;;;;;;7.63;4.30;;;11.60;99.90;;;;;;5035055;28;20490;-32
2022/03/13 03:18:35;;;;;;;6.97;4.22;;;11.50;99.90;;;;;;5035271;28;20029;-32
2022/03/13 03:21:01;;;;;;;8.40;4.60;;;11.40;99.90;;;;;;5035116;28;20513;-34
2022/03/13 03:23:27;;;;;;;5.05;4.10;;;11.40;99.90;;;;;;5021833;28;20109;-37
2022/03/13 03:25:52;;;;;;;7.60;4.32;;;11.40;99.90;;;;;;5027021;28;20040;-32
2022/03/13 03:28:18;;;;;;;8.63;4.80;;;11.30;99.90;;;;;;5029627;28;20026;-32
2022/03/13 03:30:45;;;;;;;8.30;4.72;;;11.30;99.90;;;;;;5032704;28;20483;-32
2022/03/13 03:33:10;;;;;;;6.10;4.28;;;11.30;99.90;;;;;;5031154;28;20029;-37
2022/03/13 03:35:36;;;;;;;8.77;4.50;;;11.20;99.90;;;;;;5024583;28;20025;-33
2022/03/13 03:38:02;;;;;;;9.07;4.85;;;11.10;99.90;;;;;;5020795;28;20022;-38
2022/03/13 03:40:31;;;;;;;7.18;4.10;;;11.10;99.90;;;;;;5017394;28;20035;-31
2022/03/13 03:42:58;;;;;;;7.18;4.15;;;11.10;99.90;;;;;;5015493;28;20030;-36
2022/03/13 03:45:24;;;;;;;7.85;4.97;;;11.10;99.90;;;;;;5028611;28;20068;-39
2022/03/13 03:47:50;;;;;;;7.50;4.00;;;11.00;99.90;;;;;;5020404;28;20017;-39
2022/03/13 03:50:17;;;;;;;6.38;3.97;;;11.00;99.90;;;;;;5029877;28;20025;-38
2022/03/13 03:52:44;;;;;;;7.55;4.13;;;11.00;99.90;;;;;;5031874;28;20028;-37
2022/03/13 03:55:11;;;;;;;5.13;3.90;;;10.90;99.90;;;;;;5035002;28;20505;-41
2022/03/13 03:57:36;;;;;;;7.07;4.00;;;10.90;99.90;;;;;;5033948;28;20108;-39
2022/03/13 04:00:05;;;;;;;31.05;5.18;;;10.90;99.90;;;;;;5034256;28;20053;-39
2022/03/13 04:02:32;;;;;;;8.30;4.63;;;10.80;99.90;;;;;;5028721;28;20029;-39
2022/03/13 04:04:57;;;;;;;5.82;4.47;;;10.80;99.90;;;;;;5021168;28;20509;-38
2022/03/13 04:07:23;;;;;;;6.32;4.30;;;10.90;99.90;;;;;;5027323;28;20037;-37
2022/03/13 04:09:49;;;;;;;6.28;3.85;;;10.90;99.90;;;;;;5028026;28;20026;-39
2022/03/13 04:12:15;;;;;;;8.48;4.22;;;10.90;99.90;;;;;;5022104;28;20113;-40
2022/03/13 04:14:40;;;;;;;6.47;3.83;;;10.90;99.90;;;;;;5028594;28;20132;-39
2022/03/13 04:17:07;;;;;;;6.07;3.85;;;11.00;99.90;;;;;;5015660;28;20046;-39
2022/03/13 04:19:33;;;;;;;7.60;4.50;;;10.90;99.90;;;;;;5016173;28;20072;-38
2022/03/13 04:21:59;;;;;;;9.00;5.35;;;10.90;99.90;;;;;;5013519;28;20029;-40
2022/03/13 04:24:24;;;;;;;5.72;3.88;;;10.80;99.90;;;;;;5026782;28;20441;-39
2022/03/13 04:26:51;;;;;;;7.32;4.60;;;10.70;99.90;;;;;;5027252;28;20131;-38
2022/03/13 04:29:18;;;;;;;6.30;4.20;;;10.80;99.90;;;;;;5020081;28;20025;-40
2022/03/13 04:31:44;;;;;;;7.03;3.90;;;10.70;99.90;;;;;;5014502;28;20470;-38
2022/03/13 04:34:11;;;;;;;8.80;4.50;;;10.70;99.90;;;;;;5029933;28;20288;-37
2022/03/13 04:36:40;;;;;;;8.13;4.50;;;10.70;99.90;;;;;;5032601;28;20017;-39
2022/03/13 04:39:07;;;;;;;8.15;4.47;;;10.70;99.90;;;;;;5020201;28;20117;-37
2022/03/13 04:41:33;;;;;;;9.90;5.20;;;10.80;99.90;;;;;;5015986;28;20091;-38
2022/03/13 04:43:59;;;;;;;8.00;5.15;;;10.70;99.90;;;;;;5014187;28;20026;-50
2022/03/13 04:46:25;;;;;;;9.32;4.60;;;10.70;99.90;;;;;;5014294;28;20497;-41
2022/03/13 04:48:53;;;;;;;9.27;5.45;;;10.70;99.90;;;;;;5032509;28;20029;-39
2022/03/13 04:51:19;;;;;;;12.52;5.28;;;10.60;99.90;;;;;;5033684;28;20123;-39
2022/03/13 04:53:45;;;;;;;9.93;5.47;;;10.60;99.90;;;;;;5033157;28;20546;-39
2022/03/13 04:56:12;;;;;;;10.15;5.20;;;10.70;99.90;;;;;;5033717;28;20021;-40
2022/03/13 04:58:38;;;;;;;9.73;5.90;;;10.70;99.90;;;;;;5027610;28;20090;-37
2022/03/13 05:01:03;;;;;;;9.55;5.28;;;10.70;99.90;;;;;;5023366;28;20057;-39
2022/03/13 05:03:32;;;;;;;11.23;5.35;;;10.70;99.90;;;;;;5033460;28;20030;-44
2022/03/13 05:05:57;;;;;;;10.20;5.82;;;10.70;99.90;;;;;;5033195;28;20525;-49
2022/03/13 05:08:23;;;;;;;11.77;5.93;;;10.70;99.90;;;;;;5026572;28;20042;-39
2022/03/13 05:10:50;;;;;;;10.65;5.65;;;10.70;99.90;;;;;;5033198;28;20101;-41
2022/03/13 05:13:17;;;;;;;13.10;6.15;;;10.70;99.90;;;;;;5032751;28;20034;-37
2022/03/13 05:15:44;;;;;;;11.43;4.90;;;10.80;99.90;;;;;;5022473;28;20053;-37
2022/03/13 05:18:12;;;;;;;14.50;7.20;;;10.80;99.90;;;;;;5028337;28;20084;-36
2022/03/13 05:20:38;;;;;;;12.43;6.53;;;10.70;99.90;;;;;;5019769;28;20022;-39
2022/03/13 05:23:05;;;;;;;13.10;7.50;;;10.70;99.90;;;;;;5022031;28;20112;-39
2022/03/13 05:25:32;;;;;;;17.70;7.15;;;10.70;99.90;;;;;;5031542;28;20034;-38
2022/03/13 05:27:59;;;;;;;15.80;7.95;;;10.70;99.90;;;;;;5027983;28;20028;-37
2022/03/13 05:30:44;;;;;;;20.33;9.75;;;10.70;99.90;;;;;;5027042;28;20101;-37
2022/03/13 05:33:10;;;;;;;17.02;7.85;;;10.60;99.90;;;;;;5031644;28;20047;-38
2022/03/13 05:35:35;;;;;;;14.63;7.80;;;10.50;99.90;;;;;;5032482;28;20105;-33
2022/03/13 05:38:01;;;;;;;15.88;8.52;;;10.40;99.90;;;;;;5026692;28;20018;-36
2022/03/13 05:40:28;;;;;;;15.85;7.72;;;10.40;99.90;;;;;;5020432;28;20033;-39
2022/03/13 05:43:13;;;;;;;16.63;8.48;;;10.30;99.90;;;;;;5031368;28;20052;-38
2022/03/13 05:45:41;;;;;;;18.13;8.02;;;10.30;99.90;;;;;;5026998;28;20056;-38
2022/03/13 05:48:10;;;;;;;19.58;8.48;;;10.30;99.90;;;;;;5012854;28;20029;-39
2022/03/13 05:50:36;;;;;;;18.30;8.15;;;10.30;99.90;;;;;;5026451;28;20056;-37
2022/03/13 05:53:02;;;;;;;15.15;8.18;;;10.30;99.90;;;;;;5025018;28;20026;-37
2022/03/13 05:55:28;;;;;;;16.77;8.18;;;10.30;99.90;;;;;;5020030;28;20029;-39
2022/03/13 05:57:55;;;;;;;18.65;9.00;;;10.30;99.90;;;;;;5029990;28;20486;-33
2022/03/13 06:00:22;;;;;;;15.45;8.68;;;10.30;99.90;;;;;;5029344;28;20206;-39
2022/03/13 06:02:48;;;;;;;15.48;8.35;;;10.30;99.90;;;;;;5028362;28;20435;-63
2022/03/13 06:05:18;;;;;;;15.68;8.05;;;10.30;99.90;;;;;;5031217;28;20021;-39
2022/03/13 06:07:45;;;;;;;18.25;8.18;;;10.30;99.90;;;;;;5030557;28;20084;-39
2022/03/13 06:10:13;;;;;;;18.67;9.70;;;10.30;99.90;;;;;;5032101;28;20094;-37
2022/03/13 06:12:38;;;;;;;20.93;9.47;;;10.30;99.90;;;;;;5017552;28;20115;-44
2022/03/13 06:15:06;;;;;;;22.65;9.68;;;10.30;99.90;;;;;;5032238;28;20081;-39
2022/03/13 06:17:32;;;;;;;13.95;6.90;;;10.30;99.90;;;;;;5029969;28;20037;-39
2022/03/13 06:19:58;;;;;;;15.90;9.30;;;10.30;99.90;;;;;;5031786;28;20021;-36
2022/03/13 06:22:25;;;;;;;18.25;8.73;;;10.20;99.90;;;;;;5029941;28;20044;-37
2022/03/13 06:24:51;;;;;;;12.20;7.33;;;10.10;99.90;;;;;;5013890;28;20030;-31
2022/03/13 06:27:18;;;;;;;20.85;9.80;;;10.10;99.90;;;;;;5020090;28;20029;-33
2022/03/13 06:29:43;;;;;;;18.13;9.30;;;10.20;99.90;;;;;;5015398;28;20044;-38
2022/03/13 06:32:09;;;;;;;18.17;9.50;;;10.20;99.90;;;;;;5014180;28;20038;-37
2022/03/13 06:34:36;;;;;;;17.92;8.63;;;10.20;99.90;;;;;;5030056;28;20490;-40
2022/03/13 06:37:03;;;;;;;16.85;9.30;;;10.20;99.90;;;;;;5016558;28;20109;-39
2022/03/13 06:39:28;;;;;;;24.35;9.60;;;10.20;99.90;;;;;;5012859;28;20449;-39
2022/03/13 06:41:54;;;;;;;17.85;9.77;;;10.10;99.90;;;;;;5026115;28;20060;-38
2022/03/13 06:44:20;;;;;;;22.15;9.77;;;10.10;99.90;;;;;;5021213;28;20378;-33
2022/03/13 06:46:46;;;;;;;25.35;9.63;;;10.10;99.90;;;;;;5012740;28;20457;-42
2022/03/13 06:49:12;;;;;;;18.10;9.50;;;10.10;99.90;;;;;;5018354;28;20509;-35
2022/03/13 06:51:38;;;;;;;19.33;11.02;;;10.10;99.90;;;;;;5026964;28;20036;-38
2022/03/13 06:54:05;;;;;;;20.52;10.20;;;10.10;99.90;;;;;;5028536;28;20493;-35
2022/03/13 06:56:31;;;;;;;19.65;9.38;;;10.20;99.90;;;;;;5026398;28;20087;-31
2022/03/13 06:59:03;;;;;;;20.00;9.32;;;10.30;99.90;;;;;;5024466;28;20053;-38
2022/03/13 07:01:29;;;;;;;17.45;9.65;;;10.30;99.90;;;;;;5034307;28;20048;-40
2022/03/13 07:03:54;;;;;;;17.13;9.13;;;10.30;99.90;;;;;;5027393;28;20636;-37
2022/03/13 07:06:20;;;;;;;15.90;8.93;;;10.40;99.90;;;;;;5016091;28;20076;-39
2022/03/13 07:08:45;;;;;;;20.38;9.20;;;10.40;99.90;;;;;;5033904;28;20056;-39
2022/03/13 07:11:11;;;;;;;18.05;9.65;;;10.50;99.90;;;;;;5035682;28;20030;-34
2022/03/13 07:13:41;;;;;;;21.55;9.23;;;10.50;99.90;;;;;;5020290;28;20048;-36
2022/03/13 07:16:06;;;;;;;19.65;8.68;;;10.50;99.90;;;;;;5028064;28;20044;-33
2022/03/13 07:18:32;;;;;;;20.05;10.13;;;10.50;99.90;;;;;;5022864;28;20030;-32
2022/03/13 07:20:58;;;;;;;15.80;8.63;;;10.50;99.90;;;;;;5015646;28;20022;-31
2022/03/13 07:23:24;;;;;;;19.08;8.85;;;10.60;99.90;;;;;;5018790;28;20033;-31
2022/03/13 07:25:50;;;;;;;18.27;8.32;;;10.60;99.90;;;;;;5027356;28;20478;-33
2022/03/13 07:28:17;;;;;;;16.40;9.15;;;10.70;99.90;;;;;;5034722;28;20040;-32
2022/03/13 07:30:43;;;;;;;20.95;8.93;;;10.70;99.90;;;;;;5024680;28;20082;-60
2022/03/13 07:33:08;;;;;;;16.75;8.43;;;10.70;99.90;;;;;;5028281;28;20037;-35
2022/03/13 07:35:34;;;;;;;22.88;9.50;;;10.70;99.90;;;;;;5028154;28;20025;-32
2022/03/13 07:37:59;;;;;;;18.02;8.93;;;10.80;99.90;;;;;;5029130;28;20018;-32
2022/03/13 07:40:25;;;;;;;18.23;9.27;;;10.80;99.90;;;;;;5021170;28;20018;-34
2022/03/13 07:42:51;;;;;;;21.10;9.68;;;10.80;99.90;;;;;;5017063;28;20062;-35
2022/03/13 07:45:17;;;;;;;16.05;8.80;;;10.80;99.90;;;;;;5015477;28;20104;-37
2022/03/13 07:47:42;;;;;;;18.05;8.93;;;10.80;99.90;;;;;;5034920;28;20378;-35
2022/03/13 07:50:09;;;;;;;14.38;8.73;;;10.90;99.90;;;;;;5025888;28;20026;-32
2022/03/13 07:52:34;;;;;;;18.88;8.70;;;10.90;99.90;;;;;;5030588;28;20029;-32
2022/03/13 07:55:01;;;;;;;18.13;8.48;;;11.00;99.90;;;;;;5034613;28;20039;-37
2022/03/13 07:57:28;;;;;;;23.60;9.95;;;11.10;99.90;;;;;;5031100;28;20105;-37
2022/03/13 07:59:54;;;;;;;15.20;9.15;;;11.10;99.90;;;;;;5017337;28;20101;-39
2022/03/13 08:02:19;;;;;;;24.15;8.80;;;11.20;99.90;;;;;;5022208;28;20033;-37
2022/03/13 08:04:45;;;;;;;17.33;9.15;;;11.20;99.90;;;;;;5027367;28;20021;-32
2022/03/13 08:07:11;;;;;;;17.35;9.18;;;11.30;99.90;;;;;;5021429;28;20030;-35
2022/03/13 08:09:36;;;;;;;14.20;8.55;;;11.20;99.90;;;;;;5019695;28;20116;-32
2022/03/13 08:12:03;;;;;;;18.63;9.07;;;11.20;99.90;;;;;;5033852;28;20021;-33
2022/03/13 08:14:29;;;;;;;25.15;10.30;;;11.20;99.90;;;;;;5031741;28;20437;-38
2022/03/13 08:16:54;;;;;;;19.15;9.73;;;11.20;99.90;;;;;;5024959;28;20041;-32
2022/03/13 08:19:20;;;;;;;16.38;7.82;;;11.30;99.90;;;;;;5023829;28;20032;-32
2022/03/13 08:21:46;;;;;;;21.52;9.20;;;11.30;99.90;;;;;;5032549;28;20060;-34
2022/03/13 08:24:14;;;;;;;14.43;8.20;;;11.40;99.90;;;;;;5025490;28;20040;-32
2022/03/13 08:26:40;;;;;;;16.92;8.85;;;11.50;99.90;;;;;;5031244;28;20466;-36
2022/03/13 08:29:08;;;;;;;14.40;8.88;;;11.60;99.90;;;;;;5028888;28;20479;-32
2022/03/13 08:31:35;;;;;;;23.50;8.82;;;11.70;99.90;;;;;;5032553;28;20481;-38
2022/03/13 08:34:04;;;;;;;18.00;8.57;;;11.90;99.90;;;;;;5025225;28;20030;-41
2022/03/13 08:36:30;;;;;;;15.68;8.60;;;12.10;99.90;;;;;;5014214;28;20049;-34
2022/03/13 08:38:56;;;;;;;18.38;9.02;;;12.20;99.90;;;;;;5014482;28;20068;-31
2022/03/13 08:41:21;;;;;;;16.23;9.18;;;12.30;99.90;;;;;;5016379;28;20018;-34
2022/03/13 08:43:47;;;;;;;16.30;9.05;;;12.20;99.90;;;;;;5025396;28;20095;-31
2022/03/13 08:46:12;;;;;;;17.25;8.93;;;12.20;99.90;;;;;;5014398;28;20060;-32
2022/03/13 08:48:39;;;;;;;15.52;8.95;;;12.20;99.90;;;;;;5014590;28;20109;-31
2022/03/13 08:51:05;;;;;;;18.35;8.50;;;12.10;99.90;;;;;;5020284;28;20515;-31
2022/03/13 08:53:31;;;;;;;17.38;8.18;;;12.00;99.90;;;;;;5014828;28;20029;-33
2022/03/13 08:55:56;;;;;;;22.88;8.68;;;12.10;99.90;;;;;;5013980;28;20030;-33
2022/03/13 08:58:22;;;;;;;19.10;8.70;;;12.10;99.90;;;;;;5021681;28;20032;-51
2022/03/13 09:00:49;;;;;;;17.88;9.60;;;12.30;99.90;;;;;;5031586;28;20036;-30
2022/03/13 09:03:15;;;;;;;21.75;9.88;;;12.40;99.90;;;;;;5021830;28;20437;-34
2022/03/13 09:05:41;;;;;;;15.63;8.13;;;12.50;99.90;;;;;;5025893;28;20093;-34
2022/03/13 09:08:06;;;;;;;16.40;9.13;;;12.60;99.90;;;;;;5024705;28;20025;-36
2022/03/13 09:10:52;;;;;;;19.40;9.30;;;12.60;99.90;;;;;;5031712;28;20394;-37
2022/03/13 09:13:18;;;;;;;17.02;8.95;;;12.70;99.90;;;;;;5025711;28;20471;-37
2022/03/13 09:15:43;;;;;;;14.25;8.50;;;12.80;99.90;;;;;;5023020;28;20041;-33
2022/03/13 09:18:09;;;;;;;15.90;8.43;;;12.90;99.70;;;;;;5033280;28;20386;-32
2022/03/13 09:20:35;;;;;;;16.98;8.80;;;12.90;99.60;;;;;;5033612;28;20028;-37
2022/03/13 09:23:00;;;;;;;17.77;8.80;;;12.80;99.40;;;;;;5030014;28;20022;-37
2022/03/13 09:25:26;;;;;;;17.42;8.73;;;12.70;99.60;;;;;;5012546;28;20036;-31
2022/03/13 09:27:52;;;;;;;22.15;9.40;;;12.70;99.80;;;;;;5031721;28;20044;-32
2022/03/13 09:30:18;;;;;;;15.80;8.57;;;12.80;99.10;;;;;;5033041;28;20026;-32
2022/03/13 09:32:44;;;;;;;16.85;8.55;;;12.90;98.90;;;;;;5024079;28;20033;-36
2022/03/13 09:35:11;;;;;;;18.33;9.00;;;12.70;99.40;;;;;;5030515;28;20022;-40
2022/03/13 09:37:39;;;;;;;14.73;8.53;;;12.70;99.30;;;;;;5033321;28;20048;-43
2022/03/13 09:40:05;;;;;;;18.95;8.90;;;12.80;99.30;;;;;;5032882;28;20264;-60
2022/03/13 09:42:31;;;;;;;14.98;7.90;;;12.90;99.10;;;;;;5030118;28;20025;-39
2022/03/13 09:44:59;;;;;;;15.65;8.77;;;12.90;98.70;;;;;;5017285;28;20041;-63
2022/03/13 09:47:26;;;;;;;14.13;7.95;;;12.90;98.50;;;;;;5020637;28;20406;-38
2022/03/13 09:49:52;;;;;;;14.68;8.77;;;12.90;98.60;;;;;;5019272;28;20088;-38
2022/03/13 09:52:18;;;;;;;16.83;8.90;;;12.90;99.20;;;;;;5013202;28;20034;-38
2022/03/13 09:54:43;;;;;;;15.82;7.75;;;13.10;98.30;;;;;;5033031;28;20033;-40
2022/03/13 09:57:09;;;;;;;15.02;8.73;;;13.10;98.60;;;;;;5032027;28;20454;-32
2022/03/13 09:59:35;;;;;;;14.55;8.18;;;13.30;98.60;;;;;;5031561;28;20112;-36
2022/03/13 10:02:08;;;;;;;15.30;8.18;;;13.30;98.00;;;;;;5023988;28;20036;-33
2022/03/13 10:04:34;;;;;;;16.02;8.27;;;13.50;97.90;;;;;;5016771;28;20029;-35
2022/03/13 10:07:04;;;;;;;22.80;9.02;;;13.50;97.60;;;;;;5012663;28;20083;-35
2022/03/13 10:09:31;;;;;;;19.50;9.05;;;13.60;98.20;;;;;;5012696;28;20025;-37
2022/03/13 10:12:16;;;;;;;13.68;7.85;;;13.80;98.10;;;;;;5012864;28;20060;-36
2022/03/13 10:15:03;;;;;;;15.98;8.45;;;14.00;97.60;;;;;;5028163;28;20053;-34
2022/03/13 10:17:33;;;;;;;17.33;9.35;;;14.30;97.40;;;;;;5020844;28;20070;-36
2022/03/13 10:20:17;;;;;;;16.10;8.63;;;14.30;97.10;;;;;;5020895;28;20451;-32
2022/03/13 10:22:48;;;;;;;20.08;8.45;;;14.40;97.50;;;;;;5014708;28;20049;-38
2022/03/13 10:25:38;;;;;;;18.95;9.15;;;14.50;97.70;;;;;;5031663;28;20550;-35
2022/03/13 10:28:17;;;;;;;13.95;8.10;;;14.60;97.20;;;;;;5016135;28;20414;-35
2022/03/13 10:30:43;;;;;;;15.80;9.27;;;14.60;97.10;;;;;;5016617;28;20549;-35
2022/03/13 10:33:09;;;;;;;14.40;8.55;;;14.70;97.30;;;;;;5016555;28;20080;-35
2022/03/13 10:35:39;;;;;;;15.38;8.77;;;14.80;96.70;;;;;;5032831;28;20478;-38
2022/03/13 10:38:25;;;;;;;17.48;8.77;;;14.80;96.50;;;;;;5025869;28;20486;-34
2022/03/13 10:40:56;;;;;;;14.07;8.10;;;14.70;97.20;;;;;;5035975;28;20518;-32
2022/03/13 10:43:26;;;;;;;15.27;8.35;;;14.70;97.20;;;;;;5028687;28;20409;-32
2022/03/13 10:45:54;;;;;;;16.38;8.73;;;14.80;97.20;;;;;;5036531;28;20026;-32
2022/03/13 10:48:39;;;;;;;16.75;9.55;;;14.90;97.10;;;;;;5036463;28;20486;-32
2022/03/13 10:51:12;;;;;;;16.42;8.77;;;15.00;97.10;;;;;;5031830;28;20033;-32
2022/03/13 10:53:41;;;;;;;13.77;8.48;;;15.30;96.50;;;;;;5024184;28;20063;-38
2022/03/13 10:56:11;;;;;;;15.90;9.38;;;15.20;96.70;;;;;;5036225;28;20493;-37
2022/03/13 10:58:42;;;;;;;18.02;9.75;;;15.10;97.00;;;;;;5036119;28;20390;-33
2022/03/13 11:01:10;;;;;;;17.77;9.63;;;15.10;96.80;;;;;;5036099;28;20152;-32
2022/03/13 11:03:46;;;;;;;18.00;9.55;;;15.20;97.00;;;;;;5034507;28;20026;-34
2022/03/13 11:06:12;;;;;;;17.60;9.25;;;15.30;96.80;;;;;;5036145;28;20390;-36
2022/03/13 11:08:37;;;;;;;17.10;9.68;;;15.40;96.30;;;;;;5026651;28;20026;-33
2022/03/13 11:11:04;;;;;;;15.50;9.75;;;15.30;96.30;;;;;;5016810;28;20034;-33
2022/03/13 11:13:32;;;;;;;19.07;9.47;;;15.20;96.50;;;;;;5022547;28;20501;-36
2022/03/13 11:15:58;;;;;;;14.57;9.02;;;14.90;96.90;;;;;;5035376;28;20561;-32
2022/03/13 11:18:33;;;;;;;15.13;8.57;;;15.00;97.10;;;;;;5035778;28;20148;-36
2022/03/13 11:20:59;;;;;;;17.02;9.07;;;15.30;97.40;;;;;;5035544;28;20116;-38
2022/03/13 11:23:27;;;;;;;16.02;9.02;;;15.40;96.90;;;;;;5033930;28;20033;-33
2022/03/13 11:25:55;;;;;;;13.77;8.82;;;15.60;97.10;;;;;;5021370;28;20502;-33
2022/03/13 11:28:22;;;;;;;17.08;8.73;;;15.80;96.70;;;;;;5018766;28;20104;-31
2022/03/13 11:30:48;;;;;;;16.48;8.85;;;16.00;96.90;;;;;;5031192;28;20809;-36
2022/03/13 11:33:41;;;;;;;22.33;8.65;;;16.20;96.20;;;;;;5025864;28;20025;-49
2022/03/13 11:36:47;;;;;;;16.38;8.80;;;16.40;96.30;;;;;;5015807;28;20382;-39
2022/03/13 11:39:23;;;;;;;14.82;8.27;;;16.50;95.70;;;;;;4974051;28;20042;-30
2022/03/13 11:41:49;;;;;;;16.58;8.95;;;16.50;95.50;;;;;;4976684;28;20030;-33
2022/03/13 11:44:23;;;;;;;16.55;8.82;;;16.50;96.00;;;;;;5001378;28;20188;-32
2022/03/13 11:47:00;;;;;;;14.57;8.38;;;16.50;95.80;;;;;;5015442;28;20038;-35
2022/03/13 11:49:26;;;;;;;14.77;7.93;;;16.40;95.80;;;;;;5015371;28;20032;-34
2022/03/13 11:52:12;;;;;;;14.32;8.00;;;16.50;95.70;;;;;;5015049;28;20038;-33
2022/03/13 11:54:53;;;;;;;13.20;7.72;;;16.70;95.60;;;;;;5007871;28;20038;-35
2022/03/13 11:57:42;;;;;;;14.48;8.15;;;16.80;95.40;;;;;;5024751;28;20049;-35
2022/03/13 12:00:10;;;;;;;17.38;7.88;;;16.80;95.50;;;;;;5012489;28;20030;-34
2022/03/13 12:02:42;;;;;;;13.23;7.78;;;16.70;95.40;;;;;;5019471;28;20606;-34
2022/03/13 12:05:26;;;;;;;15.75;7.47;;;16.70;95.40;;;;;;5034636;28;20120;-35
2022/03/13 12:07:55;;;;;;;14.82;8.30;;;16.80;95.90;;;;;;5034577;28;20151;-38
2022/03/13 12:10:41;;;;;;;14.98;7.40;;;16.90;95.40;;;;;;5029747;28;20494;-33
2022/03/13 12:13:11;;;;;;;13.60;7.53;;;16.90;95.00;;;;;;5034719;28;20068;-35
2022/03/13 12:15:39;;;;;;;11.50;6.47;;;16.80;95.30;;;;;;5033255;28;20506;-36
2022/03/13 12:18:23;;;;;;;15.18;7.72;;;16.70;95.90;;;;;;5014632;28;20029;-34
2022/03/13 12:20:50;;;;;;;14.27;7.57;;;16.80;95.10;;;;;;5029700;28;20033;-56
2022/03/13 12:23:26;;;;;;;11.45;6.47;;;16.80;95.80;;;;;;5031548;28;20036;-36
2022/03/13 12:25:54;;;;;;;12.65;7.32;;;17.00;95.40;;;;;;5024061;28;20513;-47
2022/03/13 12:28:31;;;;;;;14.30;7.38;;;17.10;94.70;;;;;;5034460;28;20109;-37
2022/03/13 12:31:01;;;;;;;17.45;7.70;;;17.00;94.90;;;;;;5024890;28;20029;-34
2022/03/13 12:33:32;;;;;;;14.48;7.32;;;16.80;94.90;;;;;;5031803;28;20064;-31
2022/03/13 12:35:59;;;;;;;13.40;8.05;;;16.70;95.10;;;;;;5024780;28;20021;-30
2022/03/13 12:38:33;;;;;;;13.43;7.22;;;16.60;95.10;;;;;;5027610;28;20041;-36
2022/03/13 12:41:01;;;;;;;14.55;7.18;;;16.50;95.20;;;;;;5026280;28;20021;-34
2022/03/13 12:44:01;;;;;;;10.63;6.60;;;16.40;95.40;;;;;;5034121;28;20021;-32